sensor_id;sensor_type;location;lat;lon;timestamp;P1;durP1;ratioP1;P2;durP2;ratioP2
5630;SDS011;2837;50.990;7.124;2024-01-15T06:00:20;174.13;;;13.50;;
5630;SDS011;2837;50.990;7.124;2024-01-15T06:02:46;173.30;;;11.90;;
5630;SDS011;2837;50.990;7.124;2024-01-15T06:05:12;173.32;;;11.20;;
5630;SDS011;2837;50.990;7.124;2024-01-15T06:07:38;171.70;;;12.60;;
5630;SDS011;2837;50.990;7.124;2024-01-15T06:10:04;170.68;;;11.38;;
5630;SDS011;2837;50.990;7.124;2024-01-15T06:12:30;171.35;;;11.50;;
5630;SDS011;2837;50.990;7.124;2024-01-15T06:14:57;169.75;;;10.80;;
5630;SDS011;2837;50.990;7.124;2024-01-15T06:17:23;170.73;;;11.50;;
5630;SDS011;2837;50.990;7.124;2024-01-15T06:19:49;170.90;;;11.70;;
5630;SDS011;2837;50.990;7.124;2024-01-15T06:22:15;171.27;;;11.30;;
5630;SDS011;2837;50.990;7.124;2024-01-15T06:24:41;170.68;;;11.00;;
5630;SDS011;2837;50.990;7.124;2024-01-15T06:27:07;175.85;;;11.68;;
5630;SDS011;2837;50.990;7.124;2024-01-15T06:29:33;169.38;;;10.60;;
5630;SDS011;2837;50.990;7.124;2024-01-15T06:31:59;169.53;;;10.70;;
5630;SDS011;2837;50.990;7.124;2024-01-15T06:34:25;168.80;;;10.70;;
5630;SDS011;2837;50.990;7.124;2024-01-15T06:36:51;169.80;;;11.48;;
5630;SDS011;2837;50.990;7.124;2024-01-15T06:39:17;173.13;;;11.45;;
5630;SDS011;2837;50.990;7.124;2024-01-15T06:41:43;170.80;;;11.23;;
5630;SDS011;2837;50.990;7.124;2024-01-15T06:44:10;171.75;;;11.98;;
5630;SDS011;2837;50.990;7.124;2024-01-15T06:46:36;170.93;;;11.48;;
5630;SDS011;2837;50.990;7.124;2024-01-15T06:49:02;172.63;;;12.60;;
5630;SDS011;2837;50.990;7.124;2024-01-15T06:51:29;170.20;;;10.95;;
5630;SDS011;2837;50.990;7.124;2024-01-15T06:53:54;169.57;;;11.05;;
5630;SDS011;2837;50.990;7.124;2024-01-15T06:56:20;171.23;;;11.80;;
5630;SDS011;2837;50.990;7.124;2024-01-15T06:58:46;171.23;;;12.35;;
5630;SDS011;2837;50.990;7.124;2024-01-15T07:01:12;169.68;;;10.80;;
5630;SDS011;2837;50.990;7.124;2024-01-15T07:03:38;170.57;;;11.38;;
5630;SDS011;2837;50.990;7.124;2024-01-15T07:06:05;170.32;;;11.30;;
5630;SDS011;2837;50.990;7.124;2024-01-15T07:08:31;168.43;;;10.77;;
5630;SDS011;2837;50.990;7.124;2024-01-15T07:10:57;169.70;;;11.00;;
5630;SDS011;2837;50.990;7.124;2024-01-15T07:13:23;170.48;;;11.50;;
5630;SDS011;2837;50.990;7.124;2024-01-15T07:15:49;169.40;;;11.13;;
5630;SDS011;2837;50.990;7.124;2024-01-15T07:18:15;170.88;;;11.30;;
5630;SDS011;2837;50.990;7.124;2024-01-15T07:20:41;169.23;;;11.02;;
5630;SDS011;2837;50.990;7.124;2024-01-15T07:23:07;170.53;;;11.37;;
5630;SDS011;2837;50.990;7.124;2024-01-15T07:25:33;170.35;;;11.55;;
5630;SDS011;2837;50.990;7.124;2024-01-15T07:27:59;169.55;;;11.40;;
5630;SDS011;2837;50.990;7.124;2024-01-15T07:30:25;172.23;;;11.85;;
5630;SDS011;2837;50.990;7.124;2024-01-15T07:32:51;170.10;;;11.60;;
5630;SDS011;2837;50.990;7.124;2024-01-15T07:35:17;172.88;;;12.00;;
5630;SDS011;2837;50.990;7.124;2024-01-15T07:37:44;170.90;;;11.10;;
5630;SDS011;2837;50.990;7.124;2024-01-15T07:40:10;168.93;;;10.90;;
5630;SDS011;2837;50.990;7.124;2024-01-15T07:42:37;170.60;;;11.52;;
5630;SDS011;2837;50.990;7.124;2024-01-15T07:45:03;171.15;;;11.80;;
5630;SDS011;2837;50.990;7.124;2024-01-15T07:47:29;172.27;;;11.97;;
5630;SDS011;2837;50.990;7.124;2024-01-15T07:49:55;170.50;;;12.05;;
5630;SDS011;2837;50.990;7.124;2024-01-15T07:52:21;171.45;;;11.77;;
5630;SDS011;2837;50.990;7.124;2024-01-15T07:54:47;171.13;;;11.80;;
5630;SDS011;2837;50.990;7.124;2024-01-15T07:57:13;174.18;;;11.40;;
5630;SDS011;2837;50.990;7.124;2024-01-15T07:59:39;170.73;;;12.15;;
5630;SDS011;2837;50.990;7.124;2024-01-15T08:02:05;172.40;;;13.30;;
5630;SDS011;2837;50.990;7.124;2024-01-15T08:04:31;171.75;;;12.57;;
5630;SDS011;2837;50.990;7.124;2024-01-15T08:06:57;170.77;;;11.43;;
5630;SDS011;2837;50.990;7.124;2024-01-15T08:09:23;170.45;;;11.75;;
5630;SDS011;2837;50.990;7.124;2024-01-15T08:11:49;171.52;;;11.70;;
5630;SDS011;2837;50.990;7.124;2024-01-15T08:14:14;170.85;;;11.77;;
5630;SDS011;2837;50.990;7.124;2024-01-15T08:16:40;173.20;;;12.85;;
5630;SDS011;2837;50.990;7.124;2024-01-15T08:19:08;171.05;;;11.63;;
5630;SDS011;2837;50.990;7.124;2024-01-15T08:21:34;170.65;;;11.52;;
5630;SDS011;2837;50.990;7.124;2024-01-15T08:24:00;171.63;;;11.63;;
5630;SDS011;2837;50.990;7.124;2024-01-15T08:26:30;171.45;;;11.65;;
5630;SDS011;2837;50.990;7.124;2024-01-15T08:28:57;172.20;;;11.80;;
5630;SDS011;2837;50.990;7.124;2024-01-15T08:31:23;171.90;;;12.68;;
5630;SDS011;2837;50.990;7.124;2024-01-15T08:33:49;172.95;;;12.20;;
5630;SDS011;2837;50.990;7.124;2024-01-15T08:36:15;173.55;;;12.73;;
5630;SDS011;2837;50.990;7.124;2024-01-15T08:38:41;171.68;;;12.60;;
5630;SDS011;2837;50.990;7.124;2024-01-15T08:41:07;172.65;;;12.70;;
5630;SDS011;2837;50.990;7.124;2024-01-15T08:43:34;177.23;;;12.32;;
5630;SDS011;2837;50.990;7.124;2024-01-15T08:46:00;173.18;;;12.77;;
5630;SDS011;2837;50.990;7.124;2024-01-15T08:48:26;174.10;;;13.80;;
5630;SDS011;2837;50.990;7.124;2024-01-15T08:50:53;174.07;;;13.00;;
5630;SDS011;2837;50.990;7.124;2024-01-15T08:53:19;176.40;;;13.93;;
5630;SDS011;2837;50.990;7.124;2024-01-15T08:55:45;171.95;;;12.43;;
5630;SDS011;2837;50.990;7.124;2024-01-15T08:58:11;171.90;;;11.93;;
5630;SDS011;2837;50.990;7.124;2024-01-15T09:00:38;172.75;;;12.48;;
5630;SDS011;2837;50.990;7.124;2024-01-15T09:03:04;171.85;;;11.63;;
5630;SDS011;2837;50.990;7.124;2024-01-15T09:05:30;173.60;;;11.95;;
5630;SDS011;2837;50.990;7.124;2024-01-15T09:07:56;172.65;;;11.90;;
5630;SDS011;2837;50.990;7.124;2024-01-15T09:10:22;173.27;;;13.00;;
5630;SDS011;2837;50.990;7.124;2024-01-15T09:12:48;173.38;;;12.10;;
5630;SDS011;2837;50.990;7.124;2024-01-15T09:15:14;172.70;;;12.47;;
5630;SDS011;2837;50.990;7.124;2024-01-15T09:17:40;173.63;;;11.98;;
5630;SDS011;2837;50.990;7.124;2024-01-15T09:20:06;172.70;;;12.20;;
5630;SDS011;2837;50.990;7.124;2024-01-15T09:22:32;173.65;;;12.05;;
5630;SDS011;2837;50.990;7.124;2024-01-15T09:24:58;172.33;;;12.10;;
5630;SDS011;2837;50.990;7.124;2024-01-15T09:27:24;171.20;;;12.20;;
5630;SDS011;2837;50.990;7.124;2024-01-15T09:29:54;174.07;;;13.10;;
5630;SDS011;2837;50.990;7.124;2024-01-15T09:32:20;172.10;;;12.68;;
5630;SDS011;2837;50.990;7.124;2024-01-15T09:34:46;173.10;;;13.02;;
5630;SDS011;2837;50.990;7.124;2024-01-15T09:37:13;172.38;;;12.40;;
5630;SDS011;2837;50.990;7.124;2024-01-15T09:39:39;170.52;;;12.07;;
5630;SDS011;2837;50.990;7.124;2024-01-15T09:42:05;172.45;;;12.30;;
5630;SDS011;2837;50.990;7.124;2024-01-15T09:44:31;172.27;;;11.93;;
5630;SDS011;2837;50.990;7.124;2024-01-15T09:46:57;172.05;;;11.65;;
5630;SDS011;2837;50.990;7.124;2024-01-15T09:49:24;171.20;;;12.10;;
5630;SDS011;2837;50.990;7.124;2024-01-15T09:51:50;177.70;;;13.05;;
5630;SDS011;2837;50.990;7.124;2024-01-15T09:54:16;171.07;;;11.38;;
5630;SDS011;2837;50.990;7.124;2024-01-15T09:56:45;171.23;;;12.70;;
5630;SDS011;2837;50.990;7.124;2024-01-15T09:59:12;170.93;;;11.20;;
5630;SDS011;2837;50.990;7.124;2024-01-15T10:01:40;169.77;;;10.82;;
5630;SDS011;2837;50.990;7.124;2024-01-15T10:04:06;168.80;;;10.80;;
5630;SDS011;2837;50.990;7.124;2024-01-15T10:06:32;168.63;;;10.50;;
5630;SDS011;2837;50.990;7.124;2024-01-15T10:08:58;168.35;;;10.40;;
5630;SDS011;2837;50.990;7.124;2024-01-15T10:11:24;169.05;;;10.52;;
5630;SDS011;2837;50.990;7.124;2024-01-15T10:13:50;168.05;;;10.00;;
5630;SDS011;2837;50.990;7.124;2024-01-15T10:16:18;167.20;;;9.70;;
5630;SDS011;2837;50.990;7.124;2024-01-15T10:18:44;167.90;;;9.90;;
5630;SDS011;2837;50.990;7.124;2024-01-15T10:21:10;167.43;;;9.48;;
5630;SDS011;2837;50.990;7.124;2024-01-15T10:23:36;167.38;;;9.70;;
5630;SDS011;2837;50.990;7.124;2024-01-15T10:26:02;167.20;;;9.82;;
5630;SDS011;2837;50.990;7.124;2024-01-15T10:28:29;167.50;;;9.75;;
5630;SDS011;2837;50.990;7.124;2024-01-15T10:30:56;168.70;;;11.30;;
5630;SDS011;2837;50.990;7.124;2024-01-15T10:33:24;168.02;;;10.55;;
5630;SDS011;2837;50.990;7.124;2024-01-15T10:35:53;167.10;;;9.50;;
5630;SDS011;2837;50.990;7.124;2024-01-15T10:38:23;166.95;;;9.80;;
5630;SDS011;2837;50.990;7.124;2024-01-15T10:40:56;167.02;;;9.70;;
5630;SDS011;2837;50.990;7.124;2024-01-15T10:43:22;168.03;;;9.87;;
5630;SDS011;2837;50.990;7.124;2024-01-15T10:45:49;166.82;;;9.07;;
5630;SDS011;2837;50.990;7.124;2024-01-15T10:48:18;166.57;;;9.15;;
5630;SDS011;2837;50.990;7.124;2024-01-15T10:50:45;167.20;;;9.02;;
5630;SDS011;2837;50.990;7.124;2024-01-15T10:53:11;166.35;;;9.45;;
5630;SDS011;2837;50.990;7.124;2024-01-15T10:55:37;167.00;;;9.93;;
5630;SDS011;2837;50.990;7.124;2024-01-15T10:58:04;166.48;;;9.52;;
5630;SDS011;2837;50.990;7.124;2024-01-15T11:00:32;167.50;;;10.57;;
5630;SDS011;2837;50.990;7.124;2024-01-15T11:03:00;166.57;;;9.07;;
5630;SDS011;2837;50.990;7.124;2024-01-15T11:05:27;166.93;;;9.05;;
5630;SDS011;2837;50.990;7.124;2024-01-15T11:07:56;166.00;;;9.07;;
5630;SDS011;2837;50.990;7.124;2024-01-15T11:13:04;166.50;;;9.20;;
5630;SDS011;2837;50.990;7.124;2024-01-15T11:15:30;166.50;;;9.27;;
5630;SDS011;2837;50.990;7.124;2024-01-15T11:18:00;166.23;;;8.95;;
5630;SDS011;2837;50.990;7.124;2024-01-15T11:20:26;165.80;;;8.80;;
5630;SDS011;2837;50.990;7.124;2024-01-15T11:22:52;165.60;;;8.20;;
5630;SDS011;2837;50.990;7.124;2024-01-15T11:25:19;166.40;;;8.80;;
5630;SDS011;2837;50.990;7.124;2024-01-15T11:27:49;166.05;;;8.50;;
5630;SDS011;2837;50.990;7.124;2024-01-15T11:30:20;166.52;;;9.30;;
5630;SDS011;2837;50.990;7.124;2024-01-15T11:32:50;165.20;;;8.50;;
5630;SDS011;2837;50.990;7.124;2024-01-15T11:35:16;165.02;;;8.20;;
5630;SDS011;2837;50.990;7.124;2024-01-15T11:40:20;165.97;;;8.80;;
5630;SDS011;2837;50.990;7.124;2024-01-15T11:42:47;166.88;;;9.77;;
5630;SDS011;2837;50.990;7.124;2024-01-15T11:45:18;166.65;;;8.95;;
5630;SDS011;2837;50.990;7.124;2024-01-15T11:50:10;165.27;;;8.60;;
5630;SDS011;2837;50.990;7.124;2024-01-15T11:52:37;166.23;;;9.57;;
5630;SDS011;2837;50.990;7.124;2024-01-15T11:59:58;165.98;;;8.50;;
5630;SDS011;2837;50.990;7.124;2024-01-15T12:02:24;164.95;;;8.45;;
5630;SDS011;2837;50.990;7.124;2024-01-15T12:04:50;164.60;;;8.50;;
5630;SDS011;2837;50.990;7.124;2024-01-15T12:07:16;165.60;;;8.33;;
5630;SDS011;2837;50.990;7.124;2024-01-15T12:09:45;165.77;;;9.00;;
5630;SDS011;2837;50.990;7.124;2024-01-15T12:12:13;165.02;;;8.90;;
5630;SDS011;2837;50.990;7.124;2024-01-15T12:14:42;164.77;;;8.20;;
5630;SDS011;2837;50.990;7.124;2024-01-15T12:17:08;167.90;;;8.90;;
5630;SDS011;2837;50.990;7.124;2024-01-15T12:19:35;166.13;;;8.95;;
5630;SDS011;2837;50.990;7.124;2024-01-15T12:22:01;165.52;;;9.10;;
5630;SDS011;2837;50.990;7.124;2024-01-15T12:24:27;165.00;;;8.90;;
5630;SDS011;2837;50.990;7.124;2024-01-15T12:26:53;166.75;;;9.20;;
5630;SDS011;2837;50.990;7.124;2024-01-15T12:29:19;165.90;;;9.10;;
5630;SDS011;2837;50.990;7.124;2024-01-15T12:31:48;165.50;;;9.10;;
5630;SDS011;2837;50.990;7.124;2024-01-15T12:34:14;165.93;;;9.50;;
5630;SDS011;2837;50.990;7.124;2024-01-15T12:36:40;165.93;;;9.45;;
5630;SDS011;2837;50.990;7.124;2024-01-15T12:39:11;165.95;;;9.20;;
5630;SDS011;2837;50.990;7.124;2024-01-15T12:41:37;168.18;;;10.68;;
5630;SDS011;2837;50.990;7.124;2024-01-15T12:44:04;165.68;;;9.20;;
5630;SDS011;2837;50.990;7.124;2024-01-15T12:46:30;167.13;;;9.00;;
5630;SDS011;2837;50.990;7.124;2024-01-15T12:48:56;168.10;;;9.70;;
5630;SDS011;2837;50.990;7.124;2024-01-15T12:51:25;168.55;;;9.48;;
5630;SDS011;2837;50.990;7.124;2024-01-15T12:53:52;169.70;;;9.43;;
5630;SDS011;2837;50.990;7.124;2024-01-15T12:56:18;167.43;;;9.80;;
5630;SDS011;2837;50.990;7.124;2024-01-15T12:58:44;169.20;;;9.70;;
5630;SDS011;2837;50.990;7.124;2024-01-15T13:01:10;166.15;;;9.55;;
5630;SDS011;2837;50.990;7.124;2024-01-15T13:03:36;166.82;;;9.15;;
5630;SDS011;2837;50.990;7.124;2024-01-15T13:06:02;168.77;;;9.88;;
5630;SDS011;2837;50.990;7.124;2024-01-15T13:08:28;167.07;;;9.10;;
5630;SDS011;2837;50.990;7.124;2024-01-15T13:10:55;167.73;;;9.02;;
5630;SDS011;2837;50.990;7.124;2024-01-15T13:13:22;169.00;;;9.50;;
5630;SDS011;2837;50.990;7.124;2024-01-15T13:15:48;168.70;;;9.10;;
5630;SDS011;2837;50.990;7.124;2024-01-15T13:18:14;165.93;;;9.05;;
5630;SDS011;2837;50.990;7.124;2024-01-15T13:20:41;167.07;;;9.30;;
5630;SDS011;2837;50.990;7.124;2024-01-15T13:23:07;167.25;;;8.90;;
5630;SDS011;2837;50.990;7.124;2024-01-15T13:25:34;169.07;;;9.00;;
5630;SDS011;2837;50.990;7.124;2024-01-15T13:28:03;167.82;;;9.20;;
5630;SDS011;2837;50.990;7.124;2024-01-15T13:30:29;167.70;;;9.30;;
5630;SDS011;2837;50.990;7.124;2024-01-15T13:32:56;167.00;;;8.98;;
5630;SDS011;2837;50.990;7.124;2024-01-15T13:35:23;167.48;;;9.10;;
5630;SDS011;2837;50.990;7.124;2024-01-15T13:37:49;168.23;;;9.50;;
5630;SDS011;2837;50.990;7.124;2024-01-15T13:40:15;166.27;;;8.70;;
5630;SDS011;2837;50.990;7.124;2024-01-15T13:42:45;165.98;;;8.70;;
5630;SDS011;2837;50.990;7.124;2024-01-15T13:45:12;167.68;;;8.85;;
5630;SDS011;2837;50.990;7.124;2024-01-15T13:47:40;167.60;;;8.60;;
5630;SDS011;2837;50.990;7.124;2024-01-15T13:50:08;165.32;;;8.85;;
5630;SDS011;2837;50.990;7.124;2024-01-15T13:52:34;168.60;;;8.60;;
5630;SDS011;2837;50.990;7.124;2024-01-15T13:55:00;164.88;;;8.25;;
5630;SDS011;2837;50.990;7.124;2024-01-15T13:57:26;166.50;;;8.40;;
5630;SDS011;2837;50.990;7.124;2024-01-15T13:59:52;165.20;;;8.10;;
5630;SDS011;2837;50.990;7.124;2024-01-15T14:02:17;165.00;;;8.50;;
5630;SDS011;2837;50.990;7.124;2024-01-15T14:04:45;168.43;;;8.35;;
5630;SDS011;2837;50.990;7.124;2024-01-15T14:07:11;164.90;;;8.37;;
5630;SDS011;2837;50.990;7.124;2024-01-15T14:09:37;165.50;;;8.32;;
5630;SDS011;2837;50.990;7.124;2024-01-15T14:12:03;165.00;;;8.13;;
5630;SDS011;2837;50.990;7.124;2024-01-15T14:14:29;164.60;;;8.15;;
5630;SDS011;2837;50.990;7.124;2024-01-15T14:16:55;165.80;;;8.20;;
5630;SDS011;2837;50.990;7.124;2024-01-15T14:19:21;164.57;;;8.27;;
5630;SDS011;2837;50.990;7.124;2024-01-15T14:21:47;165.30;;;8.43;;
5630;SDS011;2837;50.990;7.124;2024-01-15T14:24:13;165.70;;;8.13;;
5630;SDS011;2837;50.990;7.124;2024-01-15T14:26:40;164.30;;;8.00;;
5630;SDS011;2837;50.990;7.124;2024-01-15T14:29:06;165.57;;;8.52;;
5630;SDS011;2837;50.990;7.124;2024-01-15T14:31:32;164.85;;;8.27;;
5630;SDS011;2837;50.990;7.124;2024-01-15T14:33:59;165.52;;;8.40;;
5630;SDS011;2837;50.990;7.124;2024-01-15T14:36:25;168.25;;;9.10;;
5630;SDS011;2837;50.990;7.124;2024-01-15T14:38:51;164.83;;;8.10;;
5630;SDS011;2837;50.990;7.124;2024-01-15T14:41:17;165.40;;;8.80;;
5630;SDS011;2837;50.990;7.124;2024-01-15T14:43:43;166.20;;;8.60;;
5630;SDS011;2837;50.990;7.124;2024-01-15T14:46:09;165.40;;;8.60;;
5630;SDS011;2837;50.990;7.124;2024-01-15T14:48:36;166.50;;;8.20;;
5630;SDS011;2837;50.990;7.124;2024-01-15T14:51:02;165.77;;;8.63;;
5630;SDS011;2837;50.990;7.124;2024-01-15T14:53:28;165.60;;;9.40;;
5630;SDS011;2837;50.990;7.124;2024-01-15T14:55:54;165.80;;;9.80;;
5630;SDS011;2837;50.990;7.124;2024-01-15T14:58:20;164.60;;;8.25;;
5630;SDS011;2837;50.990;7.124;2024-01-15T15:00:46;164.35;;;8.15;;
5630;SDS011;2837;50.990;7.124;2024-01-15T15:03:13;164.95;;;8.23;;
5630;SDS011;2837;50.990;7.124;2024-01-15T15:05:40;166.25;;;9.13;;
5630;SDS011;2837;50.990;7.124;2024-01-15T15:08:06;165.55;;;8.70;;
5630;SDS011;2837;50.990;7.124;2024-01-15T15:10:34;164.90;;;8.10;;
5630;SDS011;2837;50.990;7.124;2024-01-15T15:13:00;164.40;;;8.20;;
5630;SDS011;2837;50.990;7.124;2024-01-15T15:15:26;165.60;;;8.67;;
5630;SDS011;2837;50.990;7.124;2024-01-15T15:17:52;165.87;;;8.80;;
5630;SDS011;2837;50.990;7.124;2024-01-15T15:20:18;164.80;;;8.40;;
5630;SDS011;2837;50.990;7.124;2024-01-15T15:22:44;164.80;;;8.20;;
5630;SDS011;2837;50.990;7.124;2024-01-15T15:25:10;165.93;;;8.30;;
5630;SDS011;2837;50.990;7.124;2024-01-15T15:27:37;165.27;;;8.90;;
5630;SDS011;2837;50.990;7.124;2024-01-15T15:30:03;164.90;;;8.50;;
5630;SDS011;2837;50.990;7.124;2024-01-15T15:32:29;166.80;;;9.45;;
5630;SDS011;2837;50.990;7.124;2024-01-15T15:34:55;165.80;;;8.82;;
5630;SDS011;2837;50.990;7.124;2024-01-15T15:37:21;165.35;;;8.48;;
5630;SDS011;2837;50.990;7.124;2024-01-15T15:39:47;166.35;;;8.98;;
5630;SDS011;2837;50.990;7.124;2024-01-15T15:42:13;166.18;;;8.77;;
5630;SDS011;2837;50.990;7.124;2024-01-15T15:44:39;166.32;;;10.15;;
5630;SDS011;2837;50.990;7.124;2024-01-15T15:47:11;165.80;;;9.02;;
5630;SDS011;2837;50.990;7.124;2024-01-15T15:49:37;165.15;;;8.50;;
5630;SDS011;2837;50.990;7.124;2024-01-15T15:52:03;167.38;;;10.18;;
5630;SDS011;2837;50.990;7.124;2024-01-15T15:54:29;166.38;;;9.20;;
5630;SDS011;2837;50.990;7.124;2024-01-15T15:56:55;166.15;;;8.77;;
5630;SDS011;2837;50.990;7.124;2024-01-15T15:59:21;165.85;;;8.93;;
5630;SDS011;2837;50.990;7.124;2024-01-15T16:01:49;165.40;;;8.52;;
5630;SDS011;2837;50.990;7.124;2024-01-15T16:04:15;166.95;;;9.10;;
5630;SDS011;2837;50.990;7.124;2024-01-15T16:06:41;166.38;;;8.82;;
5630;SDS011;2837;50.990;7.124;2024-01-15T16:09:07;166.00;;;9.30;;
5630;SDS011;2837;50.990;7.124;2024-01-15T16:11:36;165.18;;;8.63;;
5630;SDS011;2837;50.990;7.124;2024-01-15T16:14:03;165.73;;;8.95;;
5630;SDS011;2837;50.990;7.124;2024-01-15T16:16:29;165.93;;;9.05;;
5630;SDS011;2837;50.990;7.124;2024-01-15T16:18:55;166.02;;;8.70;;
5630;SDS011;2837;50.990;7.124;2024-01-15T16:21:21;165.32;;;8.60;;
5630;SDS011;2837;50.990;7.124;2024-01-15T16:23:47;165.23;;;8.83;;
5630;SDS011;2837;50.990;7.124;2024-01-15T16:26:13;165.75;;;8.85;;
5630;SDS011;2837;50.990;7.124;2024-01-15T16:28:39;166.15;;;8.48;;
5630;SDS011;2837;50.990;7.124;2024-01-15T16:31:05;164.90;;;8.60;;
5630;SDS011;2837;50.990;7.124;2024-01-15T16:33:31;165.37;;;8.40;;
5630;SDS011;2837;50.990;7.124;2024-01-15T16:35:57;166.15;;;8.57;;
5630;SDS011;2837;50.990;7.124;2024-01-15T16:38:24;167.32;;;8.52;;
5630;SDS011;2837;50.990;7.124;2024-01-15T16:40:50;166.85;;;8.50;;
5630;SDS011;2837;50.990;7.124;2024-01-15T16:43:16;166.05;;;9.35;;
5630;SDS011;2837;50.990;7.124;2024-01-15T16:45:42;169.27;;;8.45;;
5630;SDS011;2837;50.990;7.124;2024-01-15T16:48:08;165.90;;;8.73;;
5630;SDS011;2837;50.990;7.124;2024-01-15T16:50:34;166.38;;;9.10;;
5630;SDS011;2837;50.990;7.124;2024-01-15T16:53:01;165.73;;;9.10;;
5630;SDS011;2837;50.990;7.124;2024-01-15T16:55:26;165.40;;;8.47;;
5630;SDS011;2837;50.990;7.124;2024-01-15T16:57:52;164.90;;;8.47;;
5630;SDS011;2837;50.990;7.124;2024-01-15T17:00:18;165.52;;;8.52;;
5630;SDS011;2837;50.990;7.124;2024-01-15T17:02:44;167.50;;;10.10;;
5630;SDS011;2837;50.990;7.124;2024-01-15T17:05:10;167.50;;;8.90;;
5630;SDS011;2837;50.990;7.124;2024-01-15T17:07:36;165.70;;;8.95;;
5630;SDS011;2837;50.990;7.124;2024-01-15T17:10:03;165.30;;;8.90;;
5630;SDS011;2837;50.990;7.124;2024-01-15T17:12:29;166.25;;;9.35;;
5630;SDS011;2837;50.990;7.124;2024-01-15T17:14:55;167.40;;;9.60;;
5630;SDS011;2837;50.990;7.124;2024-01-15T17:17:21;166.90;;;9.50;;
5630;SDS011;2837;50.990;7.124;2024-01-15T17:19:48;167.15;;;9.30;;
5630;SDS011;2837;50.990;7.124;2024-01-15T17:22:14;166.98;;;9.48;;
5630;SDS011;2837;50.990;7.124;2024-01-15T17:24:40;167.90;;;9.82;;
5630;SDS011;2837;50.990;7.124;2024-01-15T17:27:06;165.67;;;9.10;;
5630;SDS011;2837;50.990;7.124;2024-01-15T17:29:33;166.80;;;9.57;;
5630;SDS011;2837;50.990;7.124;2024-01-15T17:31:59;169.17;;;10.50;;
5630;SDS011;2837;50.990;7.124;2024-01-15T17:34:25;167.98;;;10.50;;
5630;SDS011;2837;50.990;7.124;2024-01-15T17:36:51;167.95;;;9.20;;
5630;SDS011;2837;50.990;7.124;2024-01-15T17:39:17;166.65;;;9.02;;
5630;SDS011;2837;50.990;7.124;2024-01-15T17:41:44;167.55;;;9.25;;
5630;SDS011;2837;50.990;7.124;2024-01-15T17:44:11;167.70;;;9.80;;
5630;SDS011;2837;50.990;7.124;2024-01-15T17:46:37;168.80;;;9.40;;
5630;SDS011;2837;50.990;7.124;2024-01-15T17:49:03;167.30;;;9.10;;
5630;SDS011;2837;50.990;7.124;2024-01-15T17:51:30;166.45;;;9.15;;
5630;SDS011;2837;50.990;7.124;2024-01-15T17:53:56;168.77;;;9.35;;
5630;SDS011;2837;50.990;7.124;2024-01-15T17:56:22;166.75;;;9.07;;
5630;SDS011;2837;50.990;7.124;2024-01-15T17:58:48;166.50;;;9.00;;
5630;SDS011;2837;50.990;7.124;2024-01-15T18:01:14;167.52;;;9.73;;
5630;SDS011;2837;50.990;7.124;2024-01-15T18:03:42;167.80;;;9.20;;
5630;SDS011;2837;50.990;7.124;2024-01-15T18:06:08;168.20;;;9.45;;
5630;SDS011;2837;50.990;7.124;2024-01-15T18:08:34;166.35;;;9.38;;
5630;SDS011;2837;50.990;7.124;2024-01-15T18:11:00;169.45;;;10.70;;
5630;SDS011;2837;50.990;7.124;2024-01-15T18:13:26;167.48;;;9.15;;
5630;SDS011;2837;50.990;7.124;2024-01-15T18:15:56;168.88;;;9.88;;
5630;SDS011;2837;50.990;7.124;2024-01-15T18:18:22;170.25;;;10.75;;
5630;SDS011;2837;50.990;7.124;2024-01-15T18:20:48;168.43;;;9.77;;
5630;SDS011;2837;50.990;7.124;2024-01-15T18:23:14;169.07;;;9.98;;
5630;SDS011;2837;50.990;7.124;2024-01-15T18:25:40;169.13;;;9.52;;
5630;SDS011;2837;50.990;7.124;2024-01-15T18:28:09;169.15;;;9.95;;
5630;SDS011;2837;50.990;7.124;2024-01-15T18:30:35;168.77;;;10.10;;
5630;SDS011;2837;50.990;7.124;2024-01-15T18:33:01;166.50;;;9.30;;
5630;SDS011;2837;50.990;7.124;2024-01-15T18:35:28;168.20;;;9.50;;
5630;SDS011;2837;50.990;7.124;2024-01-15T18:37:54;167.93;;;10.20;;
5630;SDS011;2837;50.990;7.124;2024-01-15T18:40:20;167.23;;;9.10;;
5630;SDS011;2837;50.990;7.124;2024-01-15T18:42:47;166.95;;;9.35;;
5630;SDS011;2837;50.990;7.124;2024-01-15T18:45:13;166.53;;;9.40;;
5630;SDS011;2837;50.990;7.124;2024-01-15T18:47:39;170.00;;;9.55;;
5630;SDS011;2837;50.990;7.124;2024-01-15T18:50:06;171.50;;;9.80;;
5630;SDS011;2837;50.990;7.124;2024-01-15T18:52:32;167.40;;;9.50;;
5630;SDS011;2837;50.990;7.124;2024-01-15T18:54:58;169.48;;;10.02;;
5630;SDS011;2837;50.990;7.124;2024-01-15T18:57:24;167.88;;;9.57;;
5630;SDS011;2837;50.990;7.124;2024-01-15T18:59:50;169.13;;;10.20;;
5630;SDS011;2837;50.990;7.124;2024-01-15T19:02:16;167.80;;;9.43;;
5630;SDS011;2837;50.990;7.124;2024-01-15T19:04:43;168.00;;;10.20;;
5630;SDS011;2837;50.990;7.124;2024-01-15T19:07:09;167.63;;;9.60;;
5630;SDS011;2837;50.990;7.124;2024-01-15T19:09:35;168.65;;;9.70;;
5630;SDS011;2837;50.990;7.124;2024-01-15T19:12:01;167.50;;;9.60;;
5630;SDS011;2837;50.990;7.124;2024-01-15T19:14:27;168.43;;;10.05;;
5630;SDS011;2837;50.990;7.124;2024-01-15T19:16:54;168.88;;;10.00;;
5630;SDS011;2837;50.990;7.124;2024-01-15T19:19:21;169.93;;;9.75;;
5630;SDS011;2837;50.990;7.124;2024-01-15T19:21:47;168.10;;;9.82;;
5630;SDS011;2837;50.990;7.124;2024-01-15T19:24:13;170.10;;;9.80;;
5630;SDS011;2837;50.990;7.124;2024-01-15T19:26:39;168.00;;;9.93;;
5630;SDS011;2837;50.990;7.124;2024-01-15T19:29:05;168.40;;;10.10;;
5630;SDS011;2837;50.990;7.124;2024-01-15T19:31:32;169.55;;;10.45;;
5630;SDS011;2837;50.990;7.124;2024-01-15T19:33:58;168.27;;;9.70;;
5630;SDS011;2837;50.990;7.124;2024-01-15T19:36:25;170.18;;;10.35;;
5630;SDS011;2837;50.990;7.124;2024-01-15T19:38:51;167.70;;;9.90;;
5630;SDS011;2837;50.990;7.124;2024-01-15T19:41:20;170.63;;;9.70;;
5630;SDS011;2837;50.990;7.124;2024-01-15T19:43:47;169.70;;;10.27;;
5630;SDS011;2837;50.990;7.124;2024-01-15T19:46:13;168.52;;;9.95;;
5630;SDS011;2837;50.990;7.124;2024-01-15T19:48:39;166.90;;;9.73;;
5630;SDS011;2837;50.990;7.124;2024-01-15T19:51:05;167.98;;;9.98;;
5630;SDS011;2837;50.990;7.124;2024-01-15T19:53:31;167.57;;;9.68;;
5630;SDS011;2837;50.990;7.124;2024-01-15T19:55:57;168.25;;;9.80;;
5630;SDS011;2837;50.990;7.124;2024-01-15T19:58:23;168.90;;;10.05;;
5630;SDS011;2837;50.990;7.124;2024-01-15T20:00:49;167.52;;;9.60;;
5630;SDS011;2837;50.990;7.124;2024-01-15T20:03:15;167.85;;;10.25;;
5630;SDS011;2837;50.990;7.124;2024-01-15T20:05:41;170.47;;;9.47;;
5630;SDS011;2837;50.990;7.124;2024-01-15T20:08:07;167.30;;;10.00;;
5630;SDS011;2837;50.990;7.124;2024-01-15T20:10:33;168.23;;;9.80;;
5630;SDS011;2837;50.990;7.124;2024-01-15T20:12:59;169.50;;;10.13;;
5630;SDS011;2837;50.990;7.124;2024-01-15T20:15:25;167.90;;;10.00;;
5630;SDS011;2837;50.990;7.124;2024-01-15T20:17:54;167.82;;;10.00;;
5630;SDS011;2837;50.990;7.124;2024-01-15T20:20:20;168.65;;;10.18;;
5630;SDS011;2837;50.990;7.124;2024-01-15T20:22:46;167.75;;;10.10;;
5630;SDS011;2837;50.990;7.124;2024-01-15T20:25:12;168.23;;;9.90;;
5630;SDS011;2837;50.990;7.124;2024-01-15T20:27:38;169.73;;;10.50;;
5630;SDS011;2837;50.990;7.124;2024-01-15T20:30:04;169.95;;;10.65;;
5630;SDS011;2837;50.990;7.124;2024-01-15T20:32:30;167.50;;;10.30;;
5630;SDS011;2837;50.990;7.124;2024-01-15T20:34:58;169.57;;;10.25;;
5630;SDS011;2837;50.990;7.124;2024-01-15T20:37:24;168.93;;;10.70;;
5630;SDS011;2837;50.990;7.124;2024-01-15T20:39:50;169.23;;;9.90;;
5630;SDS011;2837;50.990;7.124;2024-01-15T20:42:16;168.52;;;10.30;;
5630;SDS011;2837;50.990;7.124;2024-01-15T20:44:43;171.73;;;10.40;;
5630;SDS011;2837;50.990;7.124;2024-01-15T20:47:09;169.27;;;10.35;;
5630;SDS011;2837;50.990;7.124;2024-01-15T20:49:35;171.63;;;10.48;;